Patsville, Arkansas
Current Conditions -  °F | °C
As of 11:53 AM on Wednesday 26 Nov 2014 (Local Time) from KLLQ Reporting Station
Clear Clear  
Wind Chill: 16°   Ceiling: Unl
Heat Index: 16°   Visibility: 10mi
Dew Point:   Wind: 14mph
Humidity: 39%   Direction: 230°SW
Pressure: 30.02"   Gusts: NA
Location:  33.37°N, 92.1129°W
Report Text: KLLQ 261753Z AUTO 23012KT 10SM CLR 16/02 A3002 RMK AO2 SLP165 T01560017 10156 20000 56033
Loading
Personal Weather Stations






























Interactive Weather Map New forecast layout! Learn more

10-Day Weather Forecast

Advertisements
Track Severe Weather on mobile